MSC Mars — D5KN4 — position and weather

sailwx.info

Track history (hours):
 
Tides and Currents Weather Stations Pressure Air Temp Water Temp Dewpoint Dewpoint Depression Visibility Wind Speed Wind Dir Waves Ship Positions

MSC Mars

Last reported at 2017-Nov-28 08:40 UTC. Time now 2017-Dec-11 15:22 UTC.
Position N 01°18' E 103°21'.
Warning: this ship's position is 13 days out of date.

Length 324 m; draft 13.9 m.

Type: Ship. MMSI: 636017357.

Date/timePositionNaut miles runAvg speedWind from/ knotsBaromVisibWave heightAir tempDewpointWater temp
2017-Nov-28 08:40N 01°18' E 103°21'417.7
2017-Nov-28 08:26N 01°15' E 103°24'818.2
2017-Nov-28 08:00N 01°13' E 103°32'714.0
2017-Nov-28 07:29N 01°12' E 103°39'3 7.3
2017-Nov-28 07:00N 01°14' E 103°42'3 6.8
2017-Nov-28 06:30N 01°16' E 103°44'1 2.8
2017-Nov-28 06:00N 01°16' E 103°46'0 0.1
2017-Nov-28 05:28N 01°16' E 103°46'0 0.0
2017-Nov-28 04:28N 01°16' E 103°46'0 0.0
2017-Nov-28 03:58N 01°16' E 103°46'0 0.0
2017-Nov-28 03:28N 01°16' E 103°46'0 0.1
2017-Nov-28 02:58N 01°16' E 103°46'0 0.0
2017-Nov-28 02:28N 01°16' E 103°46'0 0.1
2017-Nov-28 01:58N 01°16' E 103°46'0 0.1
2017-Nov-28 01:28N 01°16' E 103°46'0 0.1
2017-Nov-28 00:58N 01°16' E 103°46'0 0.0
2017-Nov-28 00:28N 01°16' E 103°46'0 0.0
2017-Nov-27 23:58N 01°16' E 103°46'0 0.0
2017-Nov-27 23:28N 01°16' E 103°46'0 0.0
2017-Nov-27 22:58N 01°16' E 103°46'0 0.0
2017-Nov-27 22:28N 01°16' E 103°46'0 0.0
2017-Nov-27 21:58N 01°16' E 103°46'0 0.0
2017-Nov-27 21:28N 01°16' E 103°46'0 0.0
2017-Nov-27 20:58N 01°16' E 103°46'0 0.1
2017-Nov-27 20:28N 01°16' E 103°46'0 0.1
2017-Nov-27 19:58N 01°16' E 103°46'0 0.0
2017-Nov-27 19:28N 01°16' E 103°46'0 0.0
2017-Nov-27 18:58N 01°16' E 103°46'0 0.0
2017-Nov-27 18:28N 01°16' E 103°46'0 0.1
2017-Nov-27 17:58N 01°16' E 103°46'0 0.1
2017-Nov-27 17:28N 01°16' E 103°46'0 0.0
2017-Nov-27 16:58N 01°16' E 103°46'0 0.0
2017-Nov-27 16:28N 01°16' E 103°46'0 0.0
2017-Nov-27 15:58N 01°16' E 103°46'0 0.0
2017-Nov-27 15:28N 01°16' E 103°46'0 0.0
2017-Nov-27 14:55N 01°16' E 103°46'0 0.0
2017-Nov-27 14:28N 01°16' E 103°46'0 0.1
2017-Nov-27 13:58N 01°16' E 103°46'0 0.0
2017-Nov-27 13:28N 01°16' E 103°46'0 0.1
2017-Nov-27 12:58N 01°16' E 103°46'0 0.0
2017-Nov-27 12:28N 01°16' E 103°46'0 0.0
2017-Nov-27 11:58N 01°16' E 103°46'0 0.0
2017-Nov-27 11:28N 01°16' E 103°46'0 0.1
2017-Nov-27 10:58N 01°16' E 103°46'0 0.1
2017-Nov-27 10:28N 01°16' E 103°46'0 0.0
2017-Nov-27 09:58N 01°16' E 103°46'0 0.0
2017-Nov-27 09:28N 01°16' E 103°46'0 0.0
2017-Nov-27 08:58N 01°16' E 103°46'0 0.0
2017-Nov-27 08:28N 01°16' E 103°46'0 0.0
2017-Nov-27 07:58N 01°16' E 103°46'0 0.0
2017-Nov-27 07:28N 01°16' E 103°46'0 0.0
2017-Nov-27 06:58N 01°16' E 103°46'0 0.0
2017-Nov-27 06:28N 01°16' E 103°46'0 0.0
2017-Nov-27 05:58N 01°16' E 103°46'0 0.0
2017-Nov-27 05:28N 01°16' E 103°46'0 0.0
2017-Nov-27 04:58N 01°16' E 103°46'0 0.1
2017-Nov-27 04:28N 01°16' E 103°46'0 0.1
2017-Nov-27 03:58N 01°16' E 103°46'0 0.0
2017-Nov-27 03:28N 01°16' E 103°46'0 0.0
2017-Nov-27 02:58N 01°16' E 103°46'0 0.0
2017-Nov-27 02:28N 01°16' E 103°46'0 0.0
2017-Nov-27 01:58N 01°16' E 103°46'0 0.0
2017-Nov-27 01:28N 01°16' E 103°46'0 0.0
2017-Nov-27 00:58N 01°16' E 103°46'0 0.0
2017-Nov-27 00:28N 01°16' E 103°46'0 0.0
2017-Nov-26 23:58N 01°16' E 103°46'0 0.1
2017-Nov-26 23:30N 01°16' E 103°46'0 0.3
2017-Nov-26 23:00N 01°16' E 103°45'1 2.4
2017-Nov-26 22:30N 01°15' E 103°46'4 8.0
2017-Nov-26 22:00N 01°13' E 103°49'5 9.3
2017-Nov-26 21:30N 01°13' E 103°54'4 8.3
2017-Nov-26 21:00N 01°15' E 103°57'510.5
2017-Nov-26 20:30N 01°16' E 104°03'610.8
2017-Nov-26 20:00N 01°16' E 104°08'510.7
2017-Nov-26 19:30N 01°17' E 104°13'711.2
2017-Nov-26 18:52N 01°19' E 104°20'411.3
2017-Nov-26 18:30N 01°22' E 104°23'  
2017-Nov-19 10:56N 30°33' E 122°14'613.1
2017-Nov-19 10:30N 30°35' E 122°07'4 5.7
2017-Nov-19 09:43N 30°38' E 122°03'0 0.0
2017-Nov-19 03:01N 30°38' E 122°03'0 0.0
2017-Nov-19 02:55N 30°38' E 122°03'0 0.0
2017-Nov-19 02:25N 30°38' E 122°03'0 0.0
2017-Nov-19 01:55N 30°38' E 122°03'0 0.0
2017-Nov-19 01:25N 30°38' E 122°03'0 0.0
2017-Nov-19 00:52N 30°38' E 122°03'0 0.0
2017-Nov-19 00:25N 30°38' E 122°03'  
Track history (hours):
 
Tides and Currents Weather Stations Pressure Air Temp Water Temp Dewpoint Dewpoint Depression Visibility Wind Speed Wind Dir Waves Ship Positions

MSC Mars

Last reported at 2017-Nov-28 08:40 UTC. Time now 2017-Dec-11 15:22 UTC.
Position N 01°18' E 103°21'.
Warning: this ship's position is 13 days out of date.

Length 324 m; draft 13.9 m.

Type: Ship. MMSI: 636017357.

Date/timePositionNaut miles runAvg speedWind from/ knotsBaromVisibWave heightAir tempDewpointWater temp
2017-Nov-28 08:40N 01°18' E 103°21'417.7
2017-Nov-28 08:26N 01°15' E 103°24'818.2
2017-Nov-28 08:00N 01°13' E 103°32'714.0
2017-Nov-28 07:29N 01°12' E 103°39'3 7.3
2017-Nov-28 07:00N 01°14' E 103°42'3 6.8
2017-Nov-28 06:30N 01°16' E 103°44'1 2.8
2017-Nov-28 06:00N 01°16' E 103°46'0 0.1
2017-Nov-28 05:28N 01°16' E 103°46'0 0.0
2017-Nov-28 04:28N 01°16' E 103°46'0 0.0
2017-Nov-28 03:58N 01°16' E 103°46'0 0.0
2017-Nov-28 03:28N 01°16' E 103°46'0 0.1
2017-Nov-28 02:58N 01°16' E 103°46'0 0.0
2017-Nov-28 02:28N 01°16' E 103°46'0 0.1
2017-Nov-28 01:58N 01°16' E 103°46'0 0.1
2017-Nov-28 01:28N 01°16' E 103°46'0 0.1
2017-Nov-28 00:58N 01°16' E 103°46'0 0.0
2017-Nov-28 00:28N 01°16' E 103°46'0 0.0
2017-Nov-27 23:58N 01°16' E 103°46'0 0.0
2017-Nov-27 23:28N 01°16' E 103°46'0 0.0
2017-Nov-27 22:58N 01°16' E 103°46'0 0.0
2017-Nov-27 22:28N 01°16' E 103°46'0 0.0
2017-Nov-27 21:58N 01°16' E 103°46'0 0.0
2017-Nov-27 21:28N 01°16' E 103°46'0 0.0
2017-Nov-27 20:58N 01°16' E 103°46'0 0.1
2017-Nov-27 20:28N 01°16' E 103°46'0 0.1
2017-Nov-27 19:58N 01°16' E 103°46'0 0.0
2017-Nov-27 19:28N 01°16' E 103°46'0 0.0
2017-Nov-27 18:58N 01°16' E 103°46'0 0.0
2017-Nov-27 18:28N 01°16' E 103°46'0 0.1
2017-Nov-27 17:58N 01°16' E 103°46'0 0.1
2017-Nov-27 17:28N 01°16' E 103°46'0 0.0
2017-Nov-27 16:58N 01°16' E 103°46'0 0.0
2017-Nov-27 16:28N 01°16' E 103°46'0 0.0
2017-Nov-27 15:58N 01°16' E 103°46'0 0.0
2017-Nov-27 15:28N 01°16' E 103°46'0 0.0
2017-Nov-27 14:55N 01°16' E 103°46'0 0.0
2017-Nov-27 14:28N 01°16' E 103°46'0 0.1
2017-Nov-27 13:58N 01°16' E 103°46'0 0.0
2017-Nov-27 13:28N 01°16' E 103°46'0 0.1
2017-Nov-27 12:58N 01°16' E 103°46'0 0.0
2017-Nov-27 12:28N 01°16' E 103°46'0 0.0
2017-Nov-27 11:58N 01°16' E 103°46'0 0.0
2017-Nov-27 11:28N 01°16' E 103°46'0 0.1
2017-Nov-27 10:58N 01°16' E 103°46'0 0.1
2017-Nov-27 10:28N 01°16' E 103°46'0 0.0
2017-Nov-27 09:58N 01°16' E 103°46'0 0.0
2017-Nov-27 09:28N 01°16' E 103°46'0 0.0
2017-Nov-27 08:58N 01°16' E 103°46'0 0.0
2017-Nov-27 08:28N 01°16' E 103°46'0 0.0
2017-Nov-27 07:58N 01°16' E 103°46'0 0.0
2017-Nov-27 07:28N 01°16' E 103°46'0 0.0
2017-Nov-27 06:58N 01°16' E 103°46'0 0.0
2017-Nov-27 06:28N 01°16' E 103°46'0 0.0
2017-Nov-27 05:58N 01°16' E 103°46'0 0.0
2017-Nov-27 05:28N 01°16' E 103°46'0 0.0
2017-Nov-27 04:58N 01°16' E 103°46'0 0.1
2017-Nov-27 04:28N 01°16' E 103°46'0 0.1
2017-Nov-27 03:58N 01°16' E 103°46'0 0.0
2017-Nov-27 03:28N 01°16' E 103°46'0 0.0
2017-Nov-27 02:58N 01°16' E 103°46'0 0.0
2017-Nov-27 02:28N 01°16' E 103°46'0 0.0
2017-Nov-27 01:58N 01°16' E 103°46'0 0.0
2017-Nov-27 01:28N 01°16' E 103°46'0 0.0
2017-Nov-27 00:58N 01°16' E 103°46'0 0.0
2017-Nov-27 00:28N 01°16' E 103°46'0 0.0
2017-Nov-26 23:58N 01°16' E 103°46'0 0.1
2017-Nov-26 23:30N 01°16' E 103°46'0 0.3
2017-Nov-26 23:00N 01°16' E 103°45'1 2.4
2017-Nov-26 22:30N 01°15' E 103°46'4 8.0
2017-Nov-26 22:00N 01°13' E 103°49'5 9.3
2017-Nov-26 21:30N 01°13' E 103°54'4 8.3
2017-Nov-26 21:00N 01°15' E 103°57'510.5
2017-Nov-26 20:30N 01°16' E 104°03'610.8
2017-Nov-26 20:00N 01°16' E 104°08'510.7
2017-Nov-26 19:30N 01°17' E 104°13'711.2
2017-Nov-26 18:52N 01°19' E 104°20'411.3
2017-Nov-26 18:30N 01°22' E 104°23'  
2017-Nov-19 10:56N 30°33' E 122°14'613.1
2017-Nov-19 10:30N 30°35' E 122°07'4 5.7
2017-Nov-19 09:43N 30°38' E 122°03'0 0.0
2017-Nov-19 03:01N 30°38' E 122°03'0 0.0
2017-Nov-19 02:55N 30°38' E 122°03'0 0.0
2017-Nov-19 02:25N 30°38' E 122°03'0 0.0
2017-Nov-19 01:55N 30°38' E 122°03'0 0.0
2017-Nov-19 01:25N 30°38' E 122°03'0 0.0
2017-Nov-19 00:52N 30°38' E 122°03'0 0.0
2017-Nov-19 00:25N 30°38' E 122°03'  

Dump ship's entire track history